Time;durP1;ratioP1;P1;durP2;ratioP2;P2;SDS_P1;SDS_P2;PMS_P1;PMS_P2;Temp;Humidity;BMP_temperature;BMP_pressure;BME280_temperature;BME280_humidity;BME280_pressure;Samples;Min_cycle;Max_cycle;Signal;HPM_P1;HPM_P2
2021/04/15 00:00:28;;;;;;;9.48;6.18;;;154.00;2124.80;;;;;;5014647;28;20506;-72
2021/04/15 00:02:54;;;;;;;9.85;5.82;;;154.00;2099.20;;;;;;5016005;28;20479;-72
2021/04/15 00:05:26;;;;;;;10.55;6.22;;;153.90;2099.20;;;;;;5015727;28;20415;-71
2021/04/15 00:07:53;;;;;;;9.55;6.38;;;154.00;2099.20;;;;;;5016083;28;20340;-72
2021/04/15 00:10:21;;;;;;;10.07;5.78;;;153.90;2099.20;;;;;;5015545;28;20403;-71
2021/04/15 00:12:47;;;;;;;12.20;6.43;;;153.80;2124.80;;;;;;5015522;28;20466;-73
2021/04/15 00:15:15;;;;;;;9.57;5.82;;;153.80;2124.80;;;;;;4998006;28;20020;-71
2021/04/15 00:17:41;;;;;;;10.90;6.07;;;153.80;2099.20;;;;;;5015471;28;20485;-72
2021/04/15 00:20:09;;;;;;;10.57;6.10;;;153.90;2099.20;;;;;;5015405;28;20509;-71
2021/04/15 00:22:35;;;;;;;10.73;5.93;;;153.80;2099.20;;;;;;5015370;28;20406;-71
2021/04/15 00:25:02;;;;;;;10.30;6.32;;;153.70;2099.20;;;;;;5015284;28;20437;-71
2021/04/15 00:27:28;;;;;;;14.32;5.95;;;153.70;2099.20;;;;;;5015360;28;20336;-70
2021/04/15 00:29:55;;;;;;;10.13;6.00;;;153.60;2099.20;;;;;;5015082;28;20409;-72
2021/04/15 00:32:21;;;;;;;14.48;5.28;;;153.60;2099.20;;;;;;5014136;28;20049;-71
2021/04/15 00:34:47;;;;;;;11.15;6.15;;;128.90;2099.20;;;;;;5015203;28;20367;-72
2021/04/15 00:37:13;;;;;;;12.10;5.90;;;128.90;2124.80;;;;;;5015119;28;20390;-70
2021/04/15 00:39:39;;;;;;;13.60;6.80;;;128.90;2124.80;;;;;;5014879;28;20375;-71
2021/04/15 00:42:06;;;;;;;12.75;6.85;;;128.90;2099.20;;;;;;5015255;28;20439;-70
2021/04/15 00:44:32;;;;;;;12.73;6.05;;;128.80;2124.80;;;;;;5015141;28;20022;-72
2021/04/15 00:47:13;;;;;;;13.95;6.43;;;128.70;2124.80;;;;;;5014587;28;20408;-71
2021/04/15 00:49:52;;;;;;;8.32;5.20;;;128.70;2124.80;;;;;;5015210;28;20454;-72
2021/04/15 00:52:21;;;;;;;10.63;5.38;;;128.80;2124.80;;;;;;5015136;28;20056;-71
2021/04/15 00:54:55;;;;;;;13.88;5.47;;;128.80;2124.80;;;;;;5014869;28;20506;-71
2021/04/15 00:57:27;;;;;;;12.77;6.00;;;128.60;2124.80;;;;;;5014887;28;20434;-72
2021/04/15 00:59:53;;;;;;;10.80;6.82;;;128.60;2124.80;;;;;;5014742;28;20026;-71
2021/04/15 01:02:23;;;;;;;11.20;6.82;;;128.70;2124.80;;;;;;5014673;28;20488;-71
2021/04/15 01:04:56;;;;;;;11.75;6.32;;;128.70;2124.80;;;;;;5014661;28;20431;-71
2021/04/15 01:07:23;;;;;;;16.30;6.60;;;128.80;2099.20;;;;;;5014678;28;20465;-71
2021/04/15 01:09:50;;;;;;;10.90;5.57;;;128.50;2124.80;;;;;;5014578;28;20363;-71
2021/04/15 01:12:16;;;;;;;12.15;6.10;;;128.40;2150.40;;;;;;5014531;28;20025;-70
2021/04/15 01:15:00;;;;;;;14.63;6.72;;;128.50;2150.40;;;;;;5014477;28;20025;-71
2021/04/15 01:17:28;;;;;;;;;;;128.50;2150.40;;;;;;5015157;28;20451;-72
2021/04/15 01:20:07;;;;;;;10.20;5.93;;;128.50;2124.80;;;;;;5014267;28;20346;-74
2021/04/15 01:22:54;;;;;;;9.50;5.97;;;128.50;2124.80;;;;;;5014327;28;20371;-71
2021/04/15 01:25:28;;;;;;;12.93;6.03;;;128.50;2124.80;;;;;;5014595;28;20363;-71
2021/04/15 01:28:20;;;;;;;10.50;5.68;;;128.50;2124.80;;;;;;5014322;28;20362;-71
2021/04/15 01:30:59;;;;;;;12.75;5.93;;;128.20;2150.40;;;;;;5013478;28;20393;-72
2021/04/15 01:33:35;;;;;;;11.35;6.30;;;128.20;2176.00;;;;;;5014149;28;20370;-70
2021/04/15 01:36:20;;;;;;;16.35;6.40;;;128.20;2150.40;;;;;;5014177;28;20406;-71
2021/04/15 01:38:59;;;;;;;11.52;6.28;;;128.10;2176.00;;;;;;5014069;28;20379;-71
2021/04/15 01:41:41;;;;;;;9.50;5.77;;;128.00;2176.00;;;;;;5014114;28;20022;-71
2021/04/15 01:44:16;;;;;;;14.13;5.95;;;103.30;2176.00;;;;;;5013974;28;20356;-71
2021/04/15 01:46:44;;;;;;;11.27;5.57;;;103.30;2176.00;;;;;;5014044;28;20368;-70
2021/04/15 01:49:13;;;;;;;9.55;5.68;;;103.30;2150.40;;;;;;5013842;28;20367;-71
2021/04/15 01:51:46;;;;;;;10.20;5.50;;;103.30;2150.40;;;;;;5013915;28;20028;-71
2021/04/15 01:54:25;;;;;;;10.23;5.97;;;128.00;2176.00;;;;;;5013861;28;20033;-71
2021/04/15 01:57:09;;;;;;;10.00;6.03;;;103.30;2150.40;;;;;;5013223;28;20458;-71
2021/04/15 02:00:04;;;;;;;11.93;6.15;;;103.20;2150.40;;;;;;5013832;28;20474;-71
2021/04/15 02:02:44;;;;;;;10.75;5.22;;;103.10;2176.00;;;;;;5011757;28;20390;-72
2021/04/15 02:05:27;;;;;;;8.50;5.40;;;103.10;2176.00;;;;;;5012126;28;20459;-71
2021/04/15 02:08:23;;;;;;;13.20;5.80;;;103.00;2176.00;;;;;;5011907;28;20429;-71
2021/04/15 02:10:57;;;;;;;11.73;6.28;;;103.00;2176.00;;;;;;5011261;28;20402;-70
2021/04/15 02:13:26;;;;;;;12.20;6.50;;;103.00;2176.00;;;;;;5011787;28;20415;-70
2021/04/15 02:16:04;;;;;;;14.73;6.23;;;103.00;2176.00;;;;;;5011646;28;20467;-70
2021/04/15 02:19:02;;;;;;;11.77;6.35;;;103.00;2176.00;;;;;;5011594;28;20340;-72
2021/04/15 02:21:53;;;;;;;12.82;5.72;;;103.10;2176.00;;;;;;4991939;28;20456;-71
2021/04/15 02:24:45;;;;;;;12.85;6.75;;;103.00;2176.00;;;;;;4992286;28;20479;-70
2021/04/15 02:27:20;;;;;;;13.43;6.77;;;103.00;2176.00;;;;;;4992184;28;20407;-72
2021/04/15 02:29:55;;;;;;;11.30;6.38;;;102.90;2176.00;;;;;;4991523;28;20414;-69
2021/04/15 02:32:36;;;;;;;9.48;5.97;;;102.90;2201.60;;;;;;4991961;28;20378;-69
2021/04/15 02:35:43;;;;;;;10.53;6.30;;;103.00;2176.00;;;;;;4991795;28;20352;-69
2021/04/15 02:38:10;;;;;;;9.70;6.30;;;102.90;2201.60;;;;;;4991615;28;20561;-76
2021/04/15 02:40:45;;;;;;;13.50;8.02;;;102.90;2201.60;;;;;;4972941;28;20460;-74
2021/04/15 02:43:22;;;;;;;9.43;6.68;;;102.70;2227.20;;;;;;4972865;28;20408;-70
2021/04/15 02:45:53;;;;;;;11.77;6.77;;;102.70;2227.20;;;;;;4972831;28;20494;-78
2021/04/15 02:48:29;;;;;;;14.83;7.13;;;102.70;2227.20;;;;;;4972945;28;20508;-71
2021/04/15 02:51:02;;;;;;;12.53;7.07;;;102.70;2227.20;;;;;;4972391;28;20408;-71
2021/04/15 02:53:34;;;;;;;13.70;6.83;;;102.70;2227.20;;;;;;4972198;28;20418;-74
2021/04/15 02:56:12;;;;;;;21.10;7.80;;;102.70;2227.20;;;;;;4972227;28;20399;-76
2021/04/15 02:58:47;;;;;;;13.03;7.63;;;102.70;2227.20;;;;;;4983935;28;20380;-74
2021/04/15 03:01:18;;;;;;;15.73;8.37;;;102.60;2227.20;;;;;;5013236;28;20411;-73
2021/04/15 03:03:49;;;;;;;14.27;9.00;;;102.80;2227.20;;;;;;5013187;28;20014;-74
2021/04/15 03:06:41;;;;;;;17.87;8.03;;;102.70;2227.20;;;;;;5013201;28;20076;-73
2021/04/15 03:09:10;;;;;;;14.97;9.17;;;102.80;2201.60;;;;;;4998166;28;20378;-76
2021/04/15 03:11:45;;;;;;;15.80;9.07;;;102.70;2227.20;;;;;;5016929;28;20419;-74
2021/04/15 03:14:37;;;;;;;17.57;9.37;;;102.60;2227.20;;;;;;5017523;28;20454;-76
2021/04/15 03:17:06;;;;;;;18.00;8.63;;;102.60;2227.20;;;;;;5016714;28;20367;-75
2021/04/15 03:19:41;;;;;;;15.90;8.38;;;102.70;2227.20;;;;;;4998939;28;20379;-71
2021/04/15 03:22:19;;;;;;;12.90;8.10;;;102.70;2227.20;;;;;;5015264;28;20422;-75
2021/04/15 03:24:50;;;;;;;16.80;8.50;;;102.70;2227.20;;;;;;5016512;28;20344;-70
2021/04/15 03:27:25;;;;;;;13.23;7.97;;;102.60;2227.20;;;;;;5016713;28;20370;-71
2021/04/15 03:29:58;;;;;;;14.95;8.93;;;102.60;2227.20;;;;;;5016320;28;20386;-74
2021/04/15 03:32:28;;;;;;;20.35;9.30;;;102.60;2227.20;;;;;;5016466;28;20459;-74
2021/04/15 03:35:09;;;;;;;12.37;7.63;;;102.60;2227.20;;;;;;5016802;28;20370;-74
2021/04/15 03:37:48;;;;;;;13.98;9.02;;;102.60;2227.20;;;;;;5016612;28;20418;-72
2021/04/15 03:40:17;;;;;;;34.73;13.70;;;102.60;2227.20;;;;;;5016466;28;20366;-72
2021/04/15 03:43:01;;;;;;;43.57;17.97;;;102.60;2227.20;;;;;;5016157;28;20348;-74
2021/04/15 03:45:27;;;;;;;;;;;102.50;2227.20;;;;;;5016580;28;20414;-74
2021/04/15 03:48:18;;;;;;;86.53;34.87;;;102.50;2227.20;;;;;;5016289;28;19905;-73
2021/04/15 03:50:54;;;;;;;61.70;30.80;;;102.50;2227.20;;;;;;5016049;28;20523;-74
2021/04/15 03:53:45;;;;;;;21.63;13.00;;;102.40;2227.20;;;;;;5016301;28;20351;-70
2021/04/15 03:56:29;;;;;;;14.65;9.05;;;102.60;2227.20;;;;;;5015977;28;20414;-70
2021/04/15 03:58:58;;;;;;;;;;;102.50;2227.20;;;;;;5016263;28;20426;-71
2021/04/15 04:01:28;;;;;;;22.10;11.33;;;102.70;2227.20;;;;;;5015880;28;20293;-74
2021/04/15 04:04:15;;;;;;;21.40;12.07;;;102.60;2227.20;;;;;;5015801;28;20364;-74
2021/04/15 04:06:43;;;;;;;23.10;13.53;;;102.60;2227.20;;;;;;4985438;28;20124;-73
2021/04/15 04:09:23;;;;;;;23.73;13.80;;;102.60;2201.60;;;;;;5015772;28;20600;-74
2021/04/15 04:11:52;;;;;;;24.37;13.60;;;102.80;2201.60;;;;;;5015636;28;20336;-76
2021/04/15 04:14:27;;;;;;;25.40;14.30;;;102.80;2176.00;;;;;;5015622;28;20371;-73
2021/04/15 04:17:04;;;;;;;19.03;12.33;;;102.90;2176.00;;;;;;5015624;28;20359;-75
2021/04/15 04:19:35;;;;;;;18.97;12.30;;;102.90;2176.00;;;;;;5015459;28;20447;-74
2021/04/15 04:22:47;;;;;;;22.35;13.55;;;102.80;2176.00;;;;;;5015266;28;20490;-70
2021/04/15 04:25:37;;;;;;;21.53;13.57;;;102.90;2176.00;;;;;;4955174;29;20476;-72
2021/04/15 04:28:42;;;;;;;21.97;13.63;;;102.90;2150.40;;;;;;4955364;29;20504;-74
2021/04/15 04:31:26;;;;;;;20.30;11.93;;;102.90;2150.40;;;;;;4954781;28;20524;-71
2021/04/15 04:33:55;;;;;;;16.73;11.13;;;102.90;2150.40;;;;;;4955707;29;20356;-70
2021/04/15 04:36:24;;;;;;;26.45;10.38;;;102.90;2176.00;;;;;;4954951;29;20392;-74
2021/04/15 04:38:56;;;;;;;22.93;11.37;;;103.00;2150.40;;;;;;4954785;29;20373;-72
2021/04/15 04:41:43;;;;;;;20.52;11.07;;;103.00;2150.40;;;;;;4938715;29;20401;-73
2021/04/15 04:44:17;;;;;;;17.57;9.67;;;103.10;2150.40;;;;;;4954754;29;20503;-71
2021/04/15 04:46:48;;;;;;;20.45;11.23;;;103.20;2124.80;;;;;;4954798;29;20392;-74
2021/04/15 04:49:30;;;;;;;26.50;12.30;;;103.10;2124.80;;;;;;4954725;29;20536;-74
2021/04/15 04:52:16;;;;;;;21.90;14.60;;;103.10;2124.80;;;;;;4954667;29;20411;-72
2021/04/15 04:54:42;;;;;;;20.23;12.17;;;103.10;2150.40;;;;;;4956084;28;20372;-73
2021/04/15 04:57:20;;;;;;;19.80;11.70;;;103.00;2150.40;;;;;;4995499;28;20355;-72
2021/04/15 04:59:52;;;;;;;19.60;10.93;;;103.20;2150.40;;;;;;4993908;28;20422;-70
2021/04/15 05:02:19;;;;;;;19.20;10.97;;;103.20;2150.40;;;;;;4995157;28;20375;-73
2021/04/15 05:04:45;;;;;;;25.47;15.37;;;103.20;2150.40;;;;;;4995091;28;20490;-73
2021/04/15 05:07:22;;;;;;;24.38;15.27;;;103.30;2150.40;;;;;;4994975;28;20367;-73
2021/04/15 05:09:50;;;;;;;24.10;15.40;;;103.20;2150.40;;;;;;4993809;28;20414;-70
2021/04/15 05:12:31;;;;;;;21.73;15.17;;;103.30;2150.40;;;;;;4994969;28;20366;-70
2021/04/15 05:14:58;;;;;;;26.93;15.70;;;128.00;2150.40;;;;;;4994981;28;20363;-71
2021/04/15 05:17:34;;;;;;;24.30;15.07;;;103.30;2124.80;;;;;;4995146;28;20450;-71
2021/04/15 05:20:10;;;;;;;31.67;27.20;;;103.30;2124.80;;;;;;4994813;28;20367;-73
2021/04/15 05:22:51;;;;;;;129.87;86.97;;;103.30;2124.80;;;;;;4995060;28;20478;-71
2021/04/15 05:25:39;;;;;;;23.30;14.67;;;103.30;2124.80;;;;;;4994812;28;20375;-72
2021/04/15 05:28:12;;;;;;;20.77;13.38;;;103.20;2176.00;;;;;;4994697;28;20465;-70
2021/04/15 05:30:46;;;;;;;19.07;11.60;;;103.20;2150.40;;;;;;5007213;28;20379;-70
2021/04/15 05:33:18;;;;;;;23.30;14.07;;;103.20;2150.40;;;;;;5013392;28;20398;-70
2021/04/15 05:35:52;;;;;;;20.17;13.07;;;103.20;2176.00;;;;;;5014498;28;20363;-74
2021/04/15 05:38:19;;;;;;;24.90;17.15;;;103.30;2150.40;;;;;;5014109;28;20348;-74
2021/04/15 05:40:50;;;;;;;26.70;17.90;;;128.00;2176.00;;;;;;5012868;28;20409;-73
2021/04/15 05:43:41;;;;;;;23.60;16.25;;;128.00;2176.00;;;;;;5014111;28;20355;-70
2021/04/15 05:46:18;;;;;;;28.03;21.63;;;128.00;2201.60;;;;;;5014329;28;20025;-70
2021/04/15 05:48:46;;;;;;;50.60;38.95;;;128.00;2201.60;;;;;;4996455;28;20018;-73
2021/04/15 05:51:19;;;;;;;150.03;104.43;;;128.10;2201.60;;;;;;5013959;28;20347;-73
2021/04/15 05:53:49;;;;;;;33.43;19.53;;;128.20;2176.00;;;;;;5014271;28;20192;-69
2021/04/15 05:56:32;;;;;;;31.27;18.88;;;128.20;2176.00;;;;;;5013938;28;20370;-70
2021/04/15 05:59:08;;;;;;;23.37;15.77;;;128.40;2176.00;;;;;;5013839;28;20347;-73
2021/04/15 06:01:42;;;;;;;24.13;15.20;;;128.60;2150.40;;;;;;5014152;28;20025;-74
2021/04/15 06:04:24;;;;;;;27.08;13.70;;;128.80;2150.40;;;;;;5013847;28;20577;-70
2021/04/15 06:06:51;;;;;;;23.70;12.68;;;128.90;2150.40;;;;;;5013828;28;20469;-74
2021/04/15 06:11:56;;;;;;;21.05;11.90;;;154.00;2073.60;;;;;;5009570;28;20036;-74
2021/04/15 06:14:53;;;;;;;20.80;12.18;;;154.20;2048.00;;;;;;5014041;28;20473;-70
2021/04/15 06:17:30;;;;;;;23.70;15.15;;;154.50;2022.40;;;;;;5010685;28;20479;-69
2021/04/15 06:20:26;;;;;;;28.75;14.45;;;179.70;1920.00;;;;;;5013903;28;20606;-70
2021/04/15 06:22:57;;;;;;;46.28;30.45;;;204.90;1843.20;;;;;;5013675;28;20370;-70
2021/04/15 06:25:30;;;;;;;29.38;15.35;;;230.40;1766.40;;;;;;5014244;28;20018;-72
2021/04/15 06:28:02;;;;;;;16.35;10.20;;;256.00;1638.40;;;;;;5013548;28;20370;-69
2021/04/15 06:30:44;;;;;;;14.35;10.27;;;282.20;1536.00;;;;;;5013797;28;20454;-68
2021/04/15 06:33:15;;;;;;;15.48;11.23;;;307.80;1433.60;;;;;;5013512;28;20394;-67
2021/04/15 06:35:44;;;;;;;18.77;11.15;;;333.30;1382.40;;;;;;5013505;28;20375;-69
2021/04/15 06:38:57;;;;;;;17.10;10.73;;;358.80;1305.60;;;;;;5013217;28;20382;-71
2021/04/15 06:41:25;;;;;;;16.42;10.05;;;359.20;1203.20;;;;;;4952962;29;20334;-73
2021/04/15 06:43:54;;;;;;;15.65;10.73;;;384.10;1228.80;;;;;;4954623;28;20462;-69
2021/04/15 06:46:57;;;;;;;18.40;12.05;;;384.50;1152.00;;;;;;4956936;29;20399;-70
2021/04/15 06:49:59;;;;;;;17.33;10.70;;;384.60;1152.00;;;;;;4956817;29;20372;-70
2021/04/15 06:53:01;;;;;;;20.23;12.60;;;359.30;1177.60;;;;;;4940615;29;20416;-69
2021/04/15 06:55:50;;;;;;;15.00;11.30;;;358.50;1305.60;;;;;;4956594;29;20396;-70
2021/04/15 06:59:04;;;;;;;21.33;15.15;;;307.90;1408.00;;;;;;4956414;29;20476;-68
2021/04/15 07:01:35;;;;;;;15.98;11.65;;;282.30;1484.80;;;;;;4942186;29;20419;-70
2021/04/15 07:04:18;;;;;;;12.63;10.55;;;281.70;1536.00;;;;;;4956346;29;20376;-69
2021/04/15 07:07:14;;;;;;;21.65;12.25;;;256.70;1561.60;;;;;;4956698;29;20396;-70
2021/04/15 07:09:52;;;;;;;19.45;13.35;;;256.50;1612.80;;;;;;4956359;29;20094;-69
2021/04/15 07:12:54;;;;;;;18.45;11.90;;;256.30;1638.40;;;;;;4994081;28;20517;-69
2021/04/15 07:15:45;;;;;;;15.80;11.27;;;256.10;1638.40;;;;;;5016963;28;20362;-69
2021/04/15 07:18:42;;;;;;;16.45;14.55;;;231.20;1664.00;;;;;;5016557;28;20410;-69
2021/04/15 07:21:45;;;;;;;16.73;12.85;;;231.20;1715.20;;;;;;5016532;28;20371;-69
2021/04/15 07:24:26;;;;;;;18.15;12.88;;;231.30;1689.60;;;;;;5016395;28;20363;-70
2021/04/15 07:27:23;;;;;;;19.30;11.30;;;231.30;1664.00;;;;;;5016733;28;20415;-68
2021/04/15 07:30:16;;;;;;;14.50;9.98;;;231.20;1689.60;;;;;;5016502;28;20441;-70
2021/04/15 07:33:06;;;;;;;17.00;10.98;;;231.10;1689.60;;;;;;5016691;28;20413;-68
2021/04/15 07:35:43;;;;;;;15.60;10.75;;;230.70;1689.60;;;;;;5016427;28;20482;-69
2021/04/15 07:38:19;;;;;;;17.73;10.80;;;230.60;1740.80;;;;;;5017025;28;20549;-69
2021/04/15 07:41:12;;;;;;;23.02;12.35;;;205.70;1766.40;;;;;;5016324;28;20052;-71
2021/04/15 07:44:05;;;;;;;18.23;12.40;;;205.40;1817.60;;;;;;5016326;28;20474;-70
2021/04/15 07:46:54;;;;;;;19.02;11.88;;;205.40;1843.20;;;;;;5016566;28;20430;-70
2021/04/15 07:49:41;;;;;;;19.13;11.90;;;205.30;1843.20;;;;;;5008009;28;20406;-69
2021/04/15 07:52:28;;;;;;;17.63;12.80;;;205.10;1868.80;;;;;;5016049;28;20370;-67
2021/04/15 07:55:51;;;;;;;17.98;13.18;;;205.10;1868.80;;;;;;5014952;28;20363;-69
2021/04/15 07:58:38;;;;;;;24.40;17.15;;;205.20;1868.80;;;;;;4955353;29;20423;-68
2021/04/15 08:01:32;;;;;;;27.48;19.48;;;205.10;1894.40;;;;;;4955430;29;20485;-67
2021/04/15 08:04:18;;;;;;;37.17;27.67;;;205.10;1920.00;;;;;;5003945;28;20422;-68
2021/04/15 08:07:12;;;;;;;36.92;23.70;;;205.00;1920.00;;;;;;5016087;28;20340;-74
2021/04/15 08:10:15;;;;;;;20.25;15.38;;;205.10;1920.00;;;;;;5014256;28;20374;-68
2021/04/15 08:12:54;;;;;;;18.48;12.98;;;205.20;1920.00;;;;;;5015398;28;20363;-68
2021/04/15 08:16:00;;;;;;;18.98;14.02;;;205.10;1894.40;;;;;;5015406;28;20390;-70
2021/04/15 08:18:42;;;;;;;22.27;14.02;;;205.00;1945.60;;;;;;5002368;28;20457;-70
2021/04/15 08:21:28;;;;;;;23.48;15.60;;;205.10;1920.00;;;;;;5015688;28;20076;-68
2021/04/15 08:24:18;;;;;;;24.27;15.23;;;205.20;1920.00;;;;;;5015726;28;20348;-68
2021/04/15 08:27:20;;;;;;;22.75;16.88;;;205.20;1920.00;;;;;;5015340;28;20386;-70
2021/04/15 08:30:16;;;;;;;25.45;14.30;;;205.10;1920.00;;;;;;5001872;28;20516;-69
2021/04/15 08:32:57;;;;;;;27.90;17.58;;;205.00;1920.00;;;;;;5015215;28;20529;-71
2021/04/15 08:36:02;;;;;;;20.08;15.77;;;205.00;1945.60;;;;;;5015428;28;20360;-69
2021/04/15 08:38:39;;;;;;;29.58;24.38;;;205.10;1945.60;;;;;;5015341;28;20451;-71
2021/04/15 08:41:26;;;;;;;14.27;12.13;;;205.30;1920.00;;;;;;5015320;28;20463;-71
2021/04/15 08:44:41;;;;;;;13.98;11.68;;;205.30;1894.40;;;;;;5015142;28;20344;-70
2021/04/15 08:47:35;;;;;;;18.20;12.63;;;205.30;1894.40;;;;;;5014739;28;20454;-70
2021/04/15 08:50:36;;;;;;;19.55;12.90;;;205.30;1920.00;;;;;;5014734;28;20406;-72
2021/04/15 08:53:23;;;;;;;24.90;13.80;;;205.30;1868.80;;;;;;5001689;28;20422;-69
2021/04/15 08:56:01;;;;;;;23.13;14.57;;;205.30;1894.40;;;;;;5014640;28;20433;-72
2021/04/15 08:58:56;;;;;;;25.20;15.25;;;205.40;1868.80;;;;;;5014480;28;20410;-71
2021/04/15 09:01:28;;;;;;;18.60;13.90;;;205.40;1894.40;;;;;;5014533;28;20459;-71
2021/04/15 09:04:08;;;;;;;20.15;16.73;;;205.40;1868.80;;;;;;5014868;28;20367;-71
2021/04/15 09:06:53;;;;;;;17.40;12.50;;;205.50;1894.40;;;;;;5014529;28;20371;-69
2021/04/15 09:09:44;;;;;;;20.30;17.67;;;205.70;1894.40;;;;;;5014635;28;20358;-71
2021/04/15 09:12:40;;;;;;;39.78;29.70;;;230.40;1894.40;;;;;;5014771;28;20104;-70
2021/04/15 09:15:26;;;;;;;45.37;24.33;;;230.50;1894.40;;;;;;5014816;28;20433;-70
2021/04/15 09:18:10;;;;;;;17.98;13.73;;;230.60;1894.40;;;;;;5014384;28;20700;-70
2021/04/15 09:21:19;;;;;;;18.88;10.57;;;230.80;1843.20;;;;;;5014751;28;20374;-69
2021/04/15 09:23:55;;;;;;;19.65;12.32;;;230.80;1817.60;;;;;;4989074;28;20025;-71
2021/04/15 09:26:26;;;;;;;16.08;11.32;;;230.80;1868.80;;;;;;5014632;28;20459;-70
2021/04/15 09:28:52;;;;;;;21.23;13.80;;;230.70;1843.20;;;;;;5014257;28;20378;-70
2021/04/15 09:31:35;;;;;;;18.52;12.38;;;230.70;1868.80;;;;;;5014122;28;20046;-70
2021/04/15 09:34:16;;;;;;;18.00;12.68;;;230.70;1868.80;;;;;;5014208;28;20348;-71
2021/04/15 09:36:48;;;;;;;17.52;12.95;;;230.70;1894.40;;;;;;5012928;28;20378;-71
2021/04/15 09:39:34;;;;;;;17.20;13.40;;;230.70;1868.80;;;;;;5014421;28;20348;-70
2021/04/15 09:42:40;;;;;;;36.72;18.65;;;230.70;1817.60;;;;;;5014322;28;20393;-69
2021/04/15 09:45:30;;;;;;;19.60;14.32;;;230.90;1868.80;;;;;;5014319;28;20453;-70
2021/04/15 09:48:27;;;;;;;18.33;11.68;;;230.90;1817.60;;;;;;5012815;28;20488;-69
2021/04/15 09:51:01;;;;;;;61.67;39.63;;;230.70;1868.80;;;;;;5013999;28;20368;-74
2021/04/15 09:53:46;;;;;;;30.50;19.60;;;230.80;1868.80;;;;;;5013981;28;20367;-71
2021/04/15 09:56:50;;;;;;;15.45;11.95;;;230.80;1868.80;;;;;;5012584;28;20425;-72
2021/04/15 09:59:37;;;;;;;13.45;10.32;;;230.80;1843.20;;;;;;5013752;28;20371;-69
2021/04/15 10:02:16;;;;;;;17.88;11.60;;;230.80;1817.60;;;;;;5013742;28;20363;-69
2021/04/15 10:05:01;;;;;;;16.05;11.88;;;230.70;1817.60;;;;;;5013711;28;20474;-70
2021/04/15 10:07:47;;;;;;;18.80;13.00;;;230.60;1817.60;;;;;;5013731;28;20348;-69
2021/04/15 10:10:19;;;;;;;25.05;17.48;;;230.60;1843.20;;;;;;5014031;28;20013;-72
2021/04/15 10:13:16;;;;;;;17.80;11.57;;;230.60;1792.00;;;;;;5013680;28;20453;-73
2021/04/15 10:15:51;;;;;;;78.72;42.95;;;230.60;1792.00;;;;;;5013558;28;20367;-69
2021/04/15 10:18:49;;;;;;;28.15;17.42;;;230.60;1792.00;;;;;;5014422;28;20363;-72
2021/04/15 10:21:33;;;;;;;36.53;23.15;;;230.60;1817.60;;;;;;5018053;28;20371;-70
2021/04/15 10:24:32;;;;;;;38.47;32.72;;;230.50;1792.00;;;;;;5017958;28;20350;-71
2021/04/15 10:27:39;;;;;;;111.40;67.68;;;230.50;1792.00;;;;;;5017558;28;20374;-71
2021/04/15 10:30:30;;;;;;;21.23;15.30;;;230.40;1817.60;;;;;;5017662;28;20376;-70
2021/04/15 10:33:08;;;;;;;18.30;13.40;;;230.40;1817.60;;;;;;5017488;28;20379;-68
2021/04/15 10:36:15;;;;;;;19.90;11.77;;;230.40;1868.80;;;;;;5017705;28;20382;-71
2021/04/15 10:38:59;;;;;;;14.30;10.70;;;230.50;1843.20;;;;;;5017622;28;20426;-71
2021/04/15 10:41:58;;;;;;;13.80;10.05;;;230.60;1843.20;;;;;;5017697;28;20359;-72
2021/04/15 10:44:43;;;;;;;17.98;9.65;;;230.60;1843.20;;;;;;5017336;28;20029;-70
2021/04/15 10:47:26;;;;;;;13.38;9.93;;;230.60;1817.60;;;;;;5017501;28;20485;-71
2021/04/15 10:50:23;;;;;;;16.27;11.13;;;230.60;1766.40;;;;;;5017699;28;20542;-72
2021/04/15 10:53:14;;;;;;;13.73;9.88;;;230.60;1792.00;;;;;;5017053;28;20415;-71
2021/04/15 10:55:49;;;;;;;14.30;11.35;;;230.60;1792.00;;;;;;4999394;28;20022;-71
2021/04/15 10:58:35;;;;;;;15.35;11.98;;;230.50;1817.60;;;;;;5016785;28;20363;-71
2021/04/15 11:01:23;;;;;;;14.82;11.52;;;230.60;1817.60;;;;;;5016896;28;20452;-70
2021/04/15 11:03:49;;;;;;;102.97;83.47;;;230.70;1766.40;;;;;;5016838;28;20392;-71
2021/04/15 11:07:08;;;;;;;44.22;28.48;;;231.00;1792.00;;;;;;5016716;28;20486;-71
2021/04/15 11:09:47;;;;;;;14.13;9.90;;;256.00;1766.40;;;;;;5013486;28;20422;-71
2021/04/15 11:12:16;;;;;;;13.63;9.75;;;256.30;1766.40;;;;;;5016590;28;20494;-71
2021/04/15 11:14:56;;;;;;;11.45;9.35;;;256.50;1740.80;;;;;;5016491;28;20028;-70
2021/04/15 11:17:44;;;;;;;10.52;7.95;;;256.40;1740.80;;;;;;5016507;28;20018;-71
2021/04/15 11:20:12;;;;;;;10.25;7.90;;;256.60;1715.20;;;;;;5016435;28;20378;-71
2021/04/15 11:22:41;;;;;;;12.80;8.30;;;256.60;1715.20;;;;;;4998825;28;20351;-70
2021/04/15 11:25:30;;;;;;;13.73;8.77;;;256.50;1715.20;;;;;;4999241;28;20362;-71
2021/04/15 11:28:01;;;;;;;15.45;8.95;;;256.50;1715.20;;;;;;5016421;28;20534;-72
2021/04/15 11:30:41;;;;;;;11.38;9.02;;;256.50;1740.80;;;;;;5016015;28;20336;-70
2021/04/15 11:33:11;;;;;;;11.00;8.20;;;256.40;1740.80;;;;;;5016643;28;20366;-71
2021/04/15 11:35:39;;;;;;;9.98;7.13;;;256.40;1715.20;;;;;;5016324;28;20466;-72
2021/04/15 11:38:19;;;;;;;13.55;9.48;;;256.50;1740.80;;;;;;5016595;28;20374;-69
2021/04/15 11:40:50;;;;;;;14.27;8.73;;;281.60;1792.00;;;;;;5016570;28;20586;-73
2021/04/15 11:43:37;;;;;;;11.07;7.57;;;256.80;1766.40;;;;;;5014878;28;20374;-70
2021/04/15 11:46:23;;;;;;;11.73;8.25;;;256.60;1740.80;;;;;;5016546;28;20367;-70
2021/04/15 11:49:30;;;;;;;16.50;9.15;;;256.00;1792.00;;;;;;5016343;28;20363;-70
2021/04/15 11:52:08;;;;;;;8.70;6.28;;;231.20;1894.40;;;;;;5015840;28;20540;-70
2021/04/15 11:54:48;;;;;;;11.82;8.75;;;231.10;1817.60;;;;;;5016300;28;20449;-72
2021/04/15 11:57:20;;;;;;;12.13;8.43;;;231.20;1894.40;;;;;;5016327;28;20050;-72
2021/04/15 12:00:02;;;;;;;16.13;9.88;;;231.30;1868.80;;;;;;5015823;28;20355;-71
2021/04/15 12:02:46;;;;;;;16.73;9.52;;;256.00;1945.60;;;;;;5015852;28;20473;-71
2021/04/15 12:05:37;;;;;;;17.25;11.10;;;256.00;1843.20;;;;;;5016211;28;20367;-72
2021/04/15 12:08:10;;;;;;;12.10;8.40;;;256.00;1868.80;;;;;;5016069;28;20410;-70
2021/04/15 12:10:47;;;;;;;13.77;10.02;;;256.10;1817.60;;;;;;5015690;28;20528;-70
2021/04/15 12:13:25;;;;;;;20.90;11.13;;;256.10;1792.00;;;;;;5015961;28;20363;-70
2021/04/15 12:16:02;;;;;;;11.48;7.55;;;256.00;1766.40;;;;;;5015982;28;20366;-69
2021/04/15 12:18:40;;;;;;;8.60;7.57;;;231.20;1817.60;;;;;;5015591;28;20362;-70
2021/04/15 12:21:06;;;;;;;33.03;21.05;;;230.90;1868.80;;;;;;5015519;28;20466;-70
2021/04/15 12:23:50;;;;;;;45.83;26.80;;;230.90;1920.00;;;;;;5015522;28;20522;-70
2021/04/15 12:26:25;;;;;;;44.22;27.75;;;230.80;1945.60;;;;;;5015455;28;20437;-69
2021/04/15 12:29:02;;;;;;;21.33;12.73;;;230.70;1971.20;;;;;;5015334;28;20366;-71
2021/04/15 12:31:51;;;;;;;44.88;35.53;;;230.80;1868.80;;;;;;5015200;28;20495;-71
2021/04/15 12:34:25;;;;;;;46.88;31.60;;;230.60;1894.40;;;;;;5015402;28;20537;-72
2021/04/15 12:37:39;;;;;;;59.38;39.60;;;230.90;1920.00;;;;;;5015278;28;20526;-70
2021/04/15 12:40:14;;;;;;;50.83;30.70;;;230.90;1945.60;;;;;;5015103;28;20441;-71
2021/04/15 12:42:43;;;;;;;80.43;45.72;;;231.10;1894.40;;;;;;5014810;28;20355;-70
2021/04/15 12:45:20;;;;;;;123.03;71.35;;;231.10;1843.20;;;;;;5015060;28;20021;-70
2021/04/15 12:47:49;;;;;;;62.85;39.10;;;231.00;1843.20;;;;;;5013978;28;20467;-70
2021/04/15 12:50:16;;;;;;;18.75;12.43;;;231.00;1894.40;;;;;;5014797;28;20367;-70
2021/04/15 12:52:42;;;;;;;19.00;12.60;;;230.90;1920.00;;;;;;5014823;28;20509;-71
2021/04/15 12:55:14;;;;;;;13.52;10.68;;;231.00;1920.00;;;;;;5014919;28;20397;-70
2021/04/15 12:57:40;;;;;;;7.57;6.22;;;231.20;1920.00;;;;;;5014917;28;20486;-70
2021/04/15 13:00:11;;;;;;;7.15;5.50;;;231.10;1817.60;;;;;;5014689;28;20617;-70
2021/04/15 13:02:38;;;;;;;11.38;7.20;;;231.10;1817.60;;;;;;5013625;28;20405;-69
2021/04/15 13:05:33;;;;;;;8.63;6.38;;;231.20;1817.60;;;;;;5014701;28;20363;-69
2021/04/15 13:08:23;;;;;;;10.77;7.28;;;256.20;1843.20;;;;;;4997015;28;20369;-69
2021/04/15 13:10:49;;;;;;;17.50;10.60;;;256.30;1792.00;;;;;;5014501;28;20362;-70